createdAt,value
2022-08-11T00:01:53.414Z,75.48
2022-08-11T00:04:22.515Z,74.59
2022-08-11T00:06:50.398Z,74.53
2022-08-11T00:09:19.694Z,74.45
2022-08-11T00:11:58.752Z,74.32
2022-08-11T00:14:37.862Z,74.79
2022-08-11T00:17:09.522Z,74.56
2022-08-11T00:20:15.193Z,75.18
2022-08-11T00:22:27.555Z,76.26
2022-08-11T00:24:59.991Z,75.28
2022-08-11T00:27:34.432Z,74.91
2022-08-11T00:30:02.292Z,74.81
2022-08-11T00:32:31.538Z,75.13
2022-08-11T00:35:55.087Z,74.25
2022-08-11T00:37:48.448Z,73.95
2022-08-11T00:40:18.785Z,73.03
2022-08-11T00:42:49.294Z,72.66
2022-08-11T00:45:22.455Z,73.59
2022-08-11T00:48:00.247Z,72.84
2022-08-11T00:50:31.360Z,72.49
2022-08-11T00:53:07.305Z,72.39
2022-08-11T00:56:01.025Z,71.68
2022-08-11T00:59:34.107Z,72.09
2022-08-11T01:02:07.956Z,71.61
2022-08-11T01:05:18.000Z,72.10
2022-08-11T01:08:25.683Z,71.72
2022-08-11T01:11:03.888Z,72.38
2022-08-11T01:13:54.043Z,72.07
2022-08-11T01:16:37.829Z,72.44
2022-08-11T01:20:46.149Z,73.81
2022-08-11T01:23:32.946Z,72.18
2022-08-11T01:26:42.387Z,73.44
2022-08-11T01:29:54.478Z,72.71
2022-08-11T01:32:48.469Z,73.21
2022-08-11T01:35:35.132Z,73.04
2022-08-11T01:38:32.536Z,73.26
2022-08-11T01:41:47.664Z,73.53
2022-08-11T01:44:40.769Z,73.40
2022-08-11T01:47:36.628Z,73.64
2022-08-11T01:50:15.809Z,74.21
2022-08-11T01:52:54.161Z,73.95
2022-08-11T01:55:24.300Z,74.47
2022-08-11T01:57:54.480Z,74.67
2022-08-11T02:00:23.464Z,74.89
2022-08-11T02:02:54.922Z,74.47
2022-08-11T02:05:30.277Z,74.65
2022-08-11T02:08:03.188Z,74.61
2022-08-11T02:10:52.189Z,75.33
2022-08-11T02:13:35.534Z,74.96
2022-08-11T02:16:10.680Z,75.01
2022-08-11T02:18:57.386Z,74.68
2022-08-11T02:21:45.742Z,75.37
2022-08-11T02:24:17.457Z,74.76
2022-08-11T02:26:48.008Z,74.78
2022-08-11T02:29:19.991Z,75.56
2022-08-11T02:32:29.711Z,75.75
2022-08-11T02:35:05.343Z,75.69
2022-08-11T02:37:38.606Z,75.36
2022-08-11T02:40:15.878Z,76.75
2022-08-11T02:42:55.968Z,76.16
2022-08-11T02:45:38.545Z,77.12
2022-08-11T02:48:27.352Z,76.00
2022-08-11T02:51:04.662Z,75.89
2022-08-11T02:53:38.163Z,76.46
2022-08-11T02:56:14.099Z,75.72
2022-08-11T02:59:07.304Z,76.24
2022-08-11T03:01:42.407Z,76.64
2022-08-11T03:04:12.628Z,76.99
2022-08-11T03:06:46.116Z,77.07
2022-08-11T03:09:18.085Z,77.62
2022-08-11T03:12:14.664Z,77.50
2022-08-11T03:15:05.596Z,78.24
2022-08-11T03:17:35.130Z,78.74
2022-08-11T03:20:21.778Z,78.90
2022-08-11T03:22:53.034Z,78.68
2022-08-11T03:25:30.700Z,78.58
2022-08-11T03:28:16.716Z,79.51
2022-08-11T03:30:48.767Z,79.79
2022-08-11T03:33:44.151Z,80.44
2022-08-11T03:36:19.348Z,79.61
2022-08-11T03:38:57.806Z,79.86
2022-08-11T03:42:01.855Z,79.54
2022-08-11T03:44:43.467Z,80.25
2022-08-11T03:47:37.001Z,80.08
2022-08-11T03:50:17.428Z,80.62
2022-08-11T03:52:59.353Z,79.97
2022-08-11T03:55:39.223Z,82.88
2022-08-11T03:58:54.715Z,81.34
2022-08-11T04:02:00.390Z,81.69
2022-08-11T04:05:03.057Z,81.96
2022-08-11T04:08:18.818Z,82.04
2022-08-11T04:11:17.585Z,82.83
2022-08-11T04:14:21.782Z,84.36
2022-08-11T04:16:53.332Z,83.22
2022-08-11T04:19:53.209Z,83.18
2022-08-11T04:22:31.332Z,83.37
2022-08-11T04:25:17.793Z,83.75
2022-08-11T04:28:07.549Z,84.73
2022-08-11T04:30:42.363Z,83.95
2022-08-11T04:33:59.337Z,85.88
2022-08-11T04:36:59.625Z,84.91
2022-08-11T04:39:35.762Z,83.97
2022-08-11T04:43:12.884Z,86.17
2022-08-11T04:45:57.508Z,85.26
2022-08-11T04:49:02.258Z,85.18
2022-08-11T04:52:00.563Z,86.52
2022-08-11T04:54:50.455Z,85.38
2022-08-11T04:57:38.625Z,86.57
2022-08-11T05:00:26.088Z,88.22
2022-08-11T05:03:29.443Z,85.36
2022-08-11T05:06:34.933Z,86.44
2022-08-11T05:09:15.412Z,85.30
2022-08-11T05:12:01.590Z,84.29
2022-08-11T05:14:50.216Z,83.67
2022-08-11T05:17:45.736Z,83.39
2022-08-11T05:20:31.021Z,82.60
2022-08-11T05:23:19.442Z,82.36
2022-08-11T05:26:25.523Z,80.88
2022-08-11T05:29:20.072Z,83.85
2022-08-11T05:32:10.466Z,82.38
2022-08-11T05:34:51.164Z,81.40
2022-08-11T05:37:27.216Z,79.68
2022-08-11T05:40:15.282Z,81.45
2022-08-11T05:43:07.910Z,81.56
2022-08-11T05:46:02.719Z,81.43
2022-08-11T05:48:54.013Z,78.30
2022-08-11T05:51:39.977Z,81.27
2022-08-11T05:54:40.074Z,79.41
2022-08-11T05:57:08.903Z,78.77
2022-08-11T05:59:38.241Z,79.00
2022-08-11T06:02:07.161Z,77.88
2022-08-11T06:04:35.049Z,77.68
2022-08-11T06:07:04.078Z,79.52
2022-08-11T06:09:34.081Z,78.99
2022-08-11T06:12:06.485Z,77.22
2022-08-11T06:14:34.380Z,76.32
2022-08-11T06:17:05.556Z,75.35
2022-08-11T06:19:37.854Z,75.86
2022-08-11T06:22:06.541Z,74.12
2022-08-11T06:24:34.778Z,76.10
2022-08-11T06:27:12.441Z,74.37
2022-08-11T06:29:54.410Z,75.12
2022-08-11T06:32:25.475Z,72.76
2022-08-11T06:35:11.284Z,72.39
2022-08-11T06:37:58.695Z,72.38
2022-08-11T06:40:32.499Z,72.54
2022-08-11T06:43:03.278Z,70.73
2022-08-11T06:45:33.925Z,70.97
2022-08-11T06:48:03.275Z,69.97
2022-08-11T06:50:49.033Z,71.01
2022-08-11T06:53:18.530Z,72.69
2022-08-11T06:56:05.704Z,72.75
2022-08-11T06:58:52.280Z,72.14
2022-08-11T07:01:24.351Z,71.58
2022-08-11T07:03:57.458Z,71.14
2022-08-11T07:06:41.499Z,70.56
2022-08-11T07:09:50.547Z,70.58
2022-08-11T07:12:53.974Z,68.79
2022-08-11T07:38:01.606Z,63.02
2022-08-11T07:40:31.047Z,65.35
2022-08-11T07:43:00.806Z,63.23
2022-08-11T07:45:55.181Z,61.59
2022-08-11T07:48:40.685Z,61.64
2022-08-11T07:51:26.876Z,59.90
2022-08-11T07:53:57.967Z,61.23
2022-08-11T07:56:54.180Z,60.76
2022-08-11T08:00:03.612Z,59.26
2022-08-11T08:02:45.919Z,59.25
2022-08-11T08:05:31.171Z,59.57
2022-08-11T08:08:17.308Z,59.88
2022-08-11T08:11:04.592Z,58.79
2022-08-11T08:13:51.728Z,58.72
2022-08-11T08:16:37.026Z,57.94
2022-08-11T08:19:05.018Z,58.54
2022-08-11T08:21:33.115Z,59.17
2022-08-11T08:24:13.769Z,58.46
2022-08-11T08:27:02.438Z,56.39
2022-08-11T08:29:53.769Z,55.55
2022-08-11T08:32:21.973Z,50.50
2022-08-11T08:34:52.004Z,52.19
2022-08-11T08:37:46.782Z,52.43
2022-08-11T08:40:09.278Z,50.75
2022-08-11T08:42:45.304Z,49.44
2022-08-11T08:45:15.985Z,51.45
2022-08-11T08:47:46.995Z,49.39
2022-08-11T08:50:19.554Z,49.17
2022-08-11T08:52:51.620Z,48.37
2022-08-11T08:55:19.994Z,47.41
2022-08-11T08:57:49.897Z,47.24
2022-08-11T09:00:23.070Z,46.87
2022-08-11T09:02:51.737Z,46.17
2022-08-11T09:05:20.063Z,47.63
2022-08-11T09:07:48.451Z,48.06
2022-08-11T09:10:17.414Z,48.42
2022-08-11T09:12:48.384Z,46.63
2022-08-11T09:15:19.421Z,45.98
2022-08-11T09:17:49.067Z,46.89
2022-08-11T09:20:20.042Z,45.74
2022-08-11T09:26:12.370Z,42.93
2022-08-11T09:28:40.741Z,45.56
2022-08-11T09:31:11.003Z,44.55
2022-08-11T09:33:38.892Z,42.98
2022-08-11T09:36:28.136Z,45.29
2022-08-11T09:39:13.685Z,43.38
2022-08-11T09:42:01.784Z,43.19
2022-08-11T09:44:48.580Z,43.50
2022-08-11T09:47:24.561Z,42.19
2022-08-11T09:49:54.934Z,42.83
2022-08-11T09:52:22.894Z,42.82
2022-08-11T09:54:51.693Z,41.33
2022-08-11T09:57:38.155Z,41.23
2022-08-11T10:00:12.519Z,40.14
2022-08-11T10:02:45.329Z,41.09
2022-08-11T10:05:31.353Z,40.71
2022-08-11T10:07:59.270Z,39.89
2022-08-11T10:10:27.129Z,39.30
2022-08-11T10:12:59.875Z,39.49
2022-08-11T10:15:36.773Z,39.80
2022-08-11T10:18:25.755Z,38.51
2022-08-11T10:20:55.336Z,38.30
2022-08-11T10:24:00.480Z,38.07
2022-08-11T10:26:47.142Z,38.92
2022-08-11T10:29:37.405Z,37.26
2022-08-11T10:32:24.693Z,38.10
2022-08-11T10:35:01.235Z,38.43
2022-08-11T10:38:06.435Z,38.90
2022-08-11T10:40:23.736Z,38.23
2022-08-11T10:43:06.112Z,37.89
2022-08-11T10:45:53.666Z,36.52
2022-08-11T10:48:22.475Z,36.87
2022-08-11T10:51:09.862Z,37.10
2022-08-11T10:53:57.025Z,38.31
2022-08-11T10:56:42.799Z,37.42
2022-08-11T10:59:10.899Z,36.61
2022-08-11T11:01:42.600Z,36.69
2022-08-11T11:04:14.918Z,37.63
2022-08-11T11:06:50.363Z,36.88
2022-08-11T11:09:20.630Z,36.12
2022-08-11T11:12:10.522Z,35.83
2022-08-11T11:14:58.981Z,37.13
2022-08-11T11:17:48.845Z,37.26
2022-08-11T11:20:36.258Z,35.52
2022-08-11T11:23:09.325Z,35.29
2022-08-11T11:26:06.602Z,36.18
2022-08-11T11:28:59.761Z,34.35
2022-08-11T11:31:33.447Z,35.56
2022-08-11T11:34:12.684Z,34.04
2022-08-11T11:36:45.660Z,34.07
2022-08-11T11:39:15.154Z,33.90
2022-08-11T11:41:43.571Z,35.26
2022-08-11T11:44:12.798Z,34.89
2022-08-11T11:46:40.933Z,34.76
2022-08-11T11:49:15.903Z,34.89
2022-08-11T11:51:46.159Z,34.23
2022-08-11T11:54:19.449Z,35.65
2022-08-11T11:56:47.291Z,35.07
2022-08-11T11:59:32.311Z,35.30
2022-08-11T12:02:00.315Z,35.28
2022-08-11T12:04:29.118Z,34.51
2022-08-11T12:07:17.764Z,34.67
2022-08-11T12:09:47.230Z,34.82
2022-08-11T12:12:32.408Z,34.51
2022-08-11T12:15:01.553Z,34.40
2022-08-11T12:17:30.620Z,35.01
2022-08-11T12:19:58.715Z,33.47
2022-08-11T12:26:43.394Z,33.07
2022-08-11T12:29:12.867Z,33.61
2022-08-11T12:31:41.281Z,32.62
2022-08-11T12:34:10.176Z,33.58
2022-08-11T12:36:39.451Z,33.32
2022-08-11T12:40:43.660Z,32.14
2022-08-11T12:43:37.964Z,31.78
2022-08-11T12:46:09.077Z,32.65
2022-08-11T12:49:00.765Z,33.50
2022-08-11T12:52:11.726Z,33.05
2022-08-11T12:54:43.473Z,32.87
2022-08-11T12:57:36.669Z,32.38
2022-08-11T13:00:26.126Z,32.82
2022-08-11T13:03:11.484Z,32.44
2022-08-11T13:05:44.808Z,32.65
2022-08-11T13:08:15.519Z,31.99
2022-08-11T13:11:01.190Z,32.35
2022-08-11T13:13:54.341Z,32.03
2022-08-11T13:16:22.247Z,32.39
2022-08-11T13:18:51.174Z,32.05
2022-08-11T13:21:22.199Z,33.18
2022-08-11T13:24:01.205Z,33.19
2022-08-11T13:26:47.014Z,32.72
2022-08-11T13:29:22.030Z,32.95
2022-08-11T13:31:51.470Z,33.64
2022-08-11T13:34:21.018Z,33.88
2022-08-11T13:36:50.330Z,32.79
2022-08-11T13:39:18.473Z,32.48
2022-08-11T13:41:47.984Z,32.02
2022-08-11T13:44:23.212Z,31.09
2022-08-11T13:47:09.646Z,31.69
2022-08-11T13:49:39.891Z,32.75
2022-08-11T13:52:08.693Z,32.03
2022-08-11T13:54:38.657Z,31.32
2022-08-11T13:57:13.687Z,30.35
2022-08-11T14:00:23.540Z,31.00
2022-08-11T14:02:57.782Z,32.30
2022-08-11T14:05:28.851Z,32.19
2022-08-11T14:08:01.891Z,31.58
2022-08-11T14:10:30.981Z,30.95
2022-08-11T14:13:19.676Z,30.84
2022-08-11T14:15:48.631Z,30.69
2022-08-11T14:18:20.866Z,32.09
2022-08-11T14:21:09.257Z,31.69
2022-08-11T14:23:39.933Z,31.92
2022-08-11T14:26:26.666Z,31.05
2022-08-11T14:28:55.918Z,31.90
2022-08-11T14:31:25.541Z,30.57
2022-08-11T14:34:10.463Z,30.94
2022-08-11T14:36:42.981Z,31.88
2022-08-11T14:39:16.007Z,31.63
2022-08-11T14:42:10.365Z,30.36
2022-08-11T14:45:00.529Z,29.96
2022-08-11T14:47:29.263Z,29.90
2022-08-11T14:50:11.813Z,30.79
2022-08-11T14:52:45.115Z,29.77
2022-08-11T14:55:31.955Z,30.27
2022-08-11T14:58:03.009Z,30.38
2022-08-11T15:00:31.612Z,29.75
2022-08-11T15:03:11.220Z,30.24
2022-08-11T15:05:53.669Z,31.62
2022-08-11T15:08:47.478Z,29.81
2022-08-11T15:11:36.621Z,30.85
2022-08-11T15:14:05.615Z,29.49
2022-08-11T15:16:55.314Z,29.97
2022-08-11T15:19:27.839Z,29.49
2022-08-11T15:22:14.683Z,30.36
2022-08-11T15:24:43.983Z,29.90
2022-08-11T15:27:28.907Z,29.54
2022-08-11T15:30:32.616Z,29.38
2022-08-11T15:33:22.459Z,29.62
2022-08-11T15:36:08.691Z,29.65
2022-08-11T15:38:41.081Z,30.13
2022-08-11T15:41:27.144Z,28.63
2022-08-11T15:44:13.718Z,28.99
2022-08-11T15:46:48.826Z,30.41
2022-08-11T15:49:21.747Z,29.97
2022-08-11T15:51:52.011Z,28.24
2022-08-11T15:54:26.823Z,28.41
2022-08-11T15:56:58.957Z,28.53
2022-08-11T15:59:44.633Z,29.14
2022-08-11T16:02:38.783Z,29.42
2022-08-11T16:05:13.660Z,28.15
2022-08-11T16:08:03.776Z,29.28
2022-08-11T16:10:34.165Z,28.66
2022-08-11T16:13:17.193Z,29.54
2022-08-11T16:16:04.575Z,29.77
2022-08-11T16:18:44.119Z,29.67
2022-08-11T16:21:34.161Z,30.10
2022-08-11T16:24:08.004Z,30.61
2022-08-11T16:27:11.605Z,29.53
2022-08-11T16:29:38.310Z,30.19
2022-08-11T16:32:23.752Z,29.99
2022-08-11T16:35:12.025Z,30.34
2022-08-11T16:37:58.123Z,31.23
2022-08-11T16:40:26.132Z,30.73
2022-08-11T16:43:12.942Z,30.78
2022-08-11T16:46:00.954Z,30.66
2022-08-11T16:48:35.755Z,31.41
2022-08-11T16:51:06.446Z,30.97
2022-08-11T16:53:59.593Z,31.27
2022-08-11T16:56:24.239Z,30.66
2022-08-11T16:59:12.479Z,31.54
2022-08-11T17:01:40.396Z,30.56
2022-08-11T17:04:31.380Z,30.75
2022-08-11T17:07:42.265Z,31.26
2022-08-11T17:10:53.271Z,31.74
2022-08-11T17:13:21.755Z,30.92
2022-08-11T17:16:09.584Z,31.34
2022-08-11T17:18:43.181Z,31.79
2022-08-11T17:21:15.463Z,32.18
2022-08-11T17:23:52.895Z,31.79
2022-08-11T17:26:24.362Z,33.01
2022-08-11T17:28:56.440Z,33.78
2022-08-11T17:31:43.490Z,34.52
2022-08-11T17:34:29.006Z,35.10
2022-08-11T17:36:57.078Z,35.51
2022-08-11T17:39:29.239Z,35.36
2022-08-11T17:42:15.116Z,35.63
2022-08-11T17:45:00.998Z,35.54
2022-08-11T17:47:48.060Z,36.18
2022-08-11T17:50:17.781Z,35.81
2022-08-11T17:53:04.457Z,36.46
2022-08-11T17:55:51.786Z,36.33
2022-08-11T18:01:09.574Z,36.27
2022-08-11T18:03:41.996Z,36.65
2022-08-11T18:06:33.553Z,36.92
2022-08-11T18:09:21.187Z,37.39
2022-08-11T18:12:12.315Z,37.75
2022-08-11T18:15:00.026Z,37.76
2022-08-11T18:17:45.580Z,37.95
2022-08-11T18:20:33.320Z,38.17
2022-08-11T18:23:18.955Z,38.71
2022-08-11T18:26:07.032Z,38.83
2022-08-11T18:28:56.439Z,38.89
2022-08-11T18:31:42.098Z,39.43
2022-08-11T18:35:16.033Z,39.70
2022-08-11T18:38:04.607Z,39.89
2022-08-11T18:40:50.571Z,40.54
2022-08-11T18:43:36.189Z,40.57
2022-08-11T18:46:25.021Z,40.93
2022-08-11T18:49:15.776Z,41.48
2022-08-11T18:52:03.874Z,41.40
2022-08-11T18:54:53.208Z,41.61
2022-08-11T18:57:49.628Z,42.43
2022-08-11T19:00:40.873Z,43.03
2022-08-11T19:03:26.372Z,42.34
2022-08-11T19:06:39.079Z,42.81
2022-08-11T19:09:19.091Z,43.56
2022-08-11T19:12:06.731Z,43.86
2022-08-11T19:14:53.513Z,44.51
2022-08-11T19:17:44.173Z,44.60
2022-08-11T19:20:33.228Z,45.02
2022-08-11T19:23:18.985Z,45.67
2022-08-11T19:26:04.999Z,45.82
2022-08-11T19:28:52.707Z,46.25
2022-08-11T19:31:44.447Z,46.42
2022-08-11T19:34:30.253Z,46.87
2022-08-11T19:37:18.636Z,46.93
2022-08-11T19:40:07.594Z,47.35
2022-08-11T19:42:52.946Z,47.97
2022-08-11T19:45:40.095Z,48.20
2022-08-11T19:48:32.227Z,48.48
2022-08-11T19:51:18.241Z,48.49
2022-08-11T19:54:04.260Z,48.49
2022-08-11T19:56:49.419Z,49.00
2022-08-11T19:59:37.085Z,49.00
2022-08-11T20:02:24.249Z,49.13
2022-08-11T20:05:10.100Z,49.31
2022-08-11T20:07:55.912Z,49.50
2022-08-11T20:10:44.942Z,49.64
2022-08-11T20:13:30.280Z,49.80
2022-08-11T20:16:16.100Z,50.10
2022-08-11T20:19:03.100Z,50.16
2022-08-11T20:21:48.879Z,50.32
2022-08-11T20:24:34.283Z,49.94
2022-08-11T20:27:24.626Z,50.96
2022-08-11T20:30:10.549Z,50.74
2022-08-11T20:32:56.658Z,50.44
2022-08-11T20:35:43.728Z,50.65
2022-08-11T20:38:29.675Z,50.81
2022-08-11T20:41:16.228Z,50.87
2022-08-11T20:44:05.958Z,50.61
2022-08-11T20:46:56.976Z,51.97
2022-08-11T20:49:47.700Z,51.16
2022-08-11T20:52:38.784Z,51.19
2022-08-11T21:01:38.641Z,51.69
2022-08-11T21:04:24.634Z,51.85
2022-08-11T21:07:10.772Z,51.78
2022-08-11T21:10:09.849Z,52.54
2022-08-11T21:12:57.996Z,53.28
2022-08-11T21:16:03.573Z,53.10
2022-08-11T21:18:51.030Z,53.77
2022-08-11T21:21:45.403Z,54.45
2022-08-11T21:24:31.967Z,54.28
2022-08-11T21:27:24.813Z,54.35
2022-08-11T21:30:10.937Z,54.89
2022-08-11T21:32:56.388Z,55.09
2022-08-11T21:35:45.034Z,55.59
2022-08-11T21:38:30.921Z,56.10
2022-08-11T21:41:17.240Z,56.02
2022-08-11T21:44:04.185Z,55.60
2022-08-11T21:46:53.997Z,56.23
2022-08-11T21:49:39.781Z,56.84
2022-08-11T21:52:24.994Z,57.32
2022-08-11T21:55:10.378Z,57.19
2022-08-11T21:57:55.903Z,57.86
2022-08-11T22:00:42.511Z,58.36
2022-08-11T22:03:28.072Z,58.26
2022-08-11T22:06:15.945Z,58.50
2022-08-11T22:09:01.676Z,59.28
2022-08-11T22:11:49.237Z,59.95
2022-08-11T22:14:55.874Z,60.46
2022-08-11T22:17:42.587Z,60.19
2022-08-11T22:20:29.717Z,61.40
2022-08-11T22:23:15.377Z,60.76
2022-08-11T22:26:07.066Z,61.50
2022-08-11T22:28:52.812Z,61.85
2022-08-11T22:31:37.956Z,62.53
2022-08-11T22:34:25.029Z,63.08
2022-08-11T22:37:10.670Z,62.92
2022-08-11T22:40:12.976Z,63.18
2022-08-11T22:42:58.521Z,63.37
2022-08-11T22:45:43.714Z,63.90
2022-08-11T22:48:29.247Z,63.89
2022-08-11T22:51:15.891Z,63.80
2022-08-11T22:54:01.985Z,64.06
2022-08-11T22:56:47.797Z,63.66
2022-08-11T22:59:33.825Z,63.59
2022-08-11T23:02:19.279Z,63.37
2022-08-11T23:05:04.901Z,63.37
2022-08-11T23:07:52.236Z,63.99
2022-08-11T23:10:38.825Z,63.48
2022-08-11T23:13:24.413Z,64.41
2022-08-11T23:16:10.018Z,63.48
2022-08-11T23:18:56.330Z,63.31
2022-08-11T23:21:42.431Z,62.68
2022-08-11T23:24:29.738Z,62.78
2022-08-11T23:27:15.855Z,62.78
2022-08-11T23:30:01.325Z,62.36
2022-08-11T23:32:47.217Z,61.97
2022-08-11T23:35:40.165Z,62.57
2022-08-11T23:38:37.332Z,62.94
2022-08-11T23:41:24.108Z,62.33
2022-08-11T23:44:09.714Z,62.17
2022-08-11T23:46:55.359Z,63.39
2022-08-11T23:49:41.530Z,60.83
2022-08-11T23:52:27.102Z,61.42
2022-08-11T23:55:12.920Z,62.20
2022-08-11T23:57:59.960Z,59.99
